Hlavní strana
METAR-TAF:

METAR-TAF

Letiště :

Mitiga International Airport

Tripolis, Libye

zeměpisná šířka: 32-54N, zeměpisná délka: 13-17E, výška: 11 m

METAR: chybějící

Čas: 23:46 (21:46 UTC)

Předpověď počasí

Zpráva byla vytvořena před 4 hodinami a 46 minutami, v 17:00 UTC
Předpověď platná od 18 v 18 UTC do 19 v 18 UTC
vítr z různých směrů 2 kt
Viditelnost 10 km a více
Polojasno ve výšce 2500 ft
Změna
od 19 v 04 UTC do 19 v 06 UTC
Západojihozápadní vítr 10 kt
Změna
od 19 v 10 UTC do 19 v 12 UTC
Severoseverozápadní vítr 12 kt

TAF: HLLM 181700Z 1818/1918 VRB02KT 9999 SCT025 BECMG 1904/1906 24010KT BECMG 1910/1912 33012KT

Stav a předpovědi počasí z více než 4 000 letišť (zprávy METAR a TAF).

Červené a žluté tečky na mapě představují dostupné meteorologické stanice.

Když kurzor umístíte na tečku, zobrazí se název stanice.

Pak kliknutím zobrazíte stav a předpověď počasí.

Chcete-li změnit mapu, kliknutím na zelené tlačítko se znaménkem +mapu přiblížíte, kliknutím na zelené tlačítko se znaménkem – mapu oddálíte a kliknutím na zelené šipky přejdete na sousední mapy.


METAR-TAF: